Flight Track Log - Related Links

Times and Time Zones

All times are in EDT time to prevent confusion due to time zone crossing. See the TAM3445 flight status page for this flight to view local times or setup timezone preferences in your user account.

Time Position Orientation Groundspeed Altitude Reporting Facility
EDT Latitude Longitude Course Direction KTS MPH feet Rate Location/Type
Sun 08:42:00 PM -17.6633 -46.7463 148° Southeast  Level Estimated
Sun 08:43:00 PM -17.7162 -46.7117 148° Southeast  Level Estimated
Sun 08:44:00 PM -17.7691 -46.6770 148° Southeast  Level Estimated
Sun 08:45:00 PM -17.8219 -46.6423 148° Southeast  Level Estimated
Sun 08:46:00 PM -17.8748 -46.6076 148° Southeast  Level Estimated
Sun 08:47:00 PM -17.9276 -46.5728 148° Southeast  Level Estimated
Sun 08:48:00 PM -17.9804 -46.5381 148° Southeast  Level Estimated
Sun 08:49:00 PM -18.0333 -46.5033 148° Southeast  Level Estimated
Sun 08:50:00 PM -18.0861 -46.4685 148° Southeast  Level Estimated
Sun 08:51:00 PM -18.1389 -46.4337 148° Southeast  Level Estimated
Sun 08:52:00 PM -18.1917 -46.3989 148° Southeast  Level Estimated
Sun 08:53:00 PM -18.2445 -46.3641 148° Southeast  Level Estimated
Sun 08:54:00 PM -18.2973 -46.3292 148° Southeast  Level Estimated
Sun 08:55:00 PM -18.3941 -46.2652 148° Southeast  Level Estimated
Sun 08:56:00 PM -18.4908 -46.2011 148° Southeast  Level Estimated
Sun 08:57:00 PM -18.5875 -46.1370 148° Southeast  Level Estimated
Sun 08:58:00 PM -18.6842 -46.0728 148° Southeast  Level Estimated
Sun 08:59:00 PM -18.7809 -46.0085 148° Southeast  Level Estimated
Sun 09:00:00 PM -18.8776 -45.9441 148° Southeast  Level Estimated
Sun 09:01:00 PM -18.9742 -45.8797 148° Southeast  Level Estimated
Sun 09:02:00 PM -19.0709 -45.8152 148° Southeast  Level Estimated
Sun 09:03:00 PM -19.1674 -45.7506 148° Southeast  Level Estimated
Sun 09:04:00 PM -19.2640 -45.6859 148° Southeast  Level Estimated
Sun 09:05:00 PM -19.3606 -45.6212 148° Southeast  Level Estimated
Sun 09:06:00 PM -19.4571 -45.5564 148° Southeast  Level Estimated
Sun 09:07:00 PM -19.5536 -45.4915 148° Southeast  Level Estimated
Sun 09:08:00 PM -19.6501 -45.4265 148° Southeast  Level Estimated
Sun 09:09:00 PM -19.7465 -45.3615 148° Southeast  Level Estimated
Sun 09:10:00 PM -19.8430 -45.2964 148° Southeast  Level Estimated
Sun 09:11:00 PM -19.9394 -45.2312 148° Southeast  Level Estimated
Sun 09:12:00 PM -20.0358 -45.1659 148° Southeast  Level Estimated
Sun 09:13:00 PM -20.1322 -45.1005 148° Southeast  Level Estimated
Sun 09:14:00 PM -20.2285 -45.0351 147° Southeast  Level Estimated
Sun 09:15:00 PM -20.3248 -44.9696 147° Southeast  Level Estimated
Sun 09:16:00 PM -20.4211 -44.9040 147° Southeast  Level Estimated
Sun 09:17:00 PM -20.5174 -44.8383 147° Southeast  Level Estimated
Sun 09:18:00 PM -20.6136 -44.7725 147° Southeast  Level Estimated
Sun 09:19:00 PM -20.7098 -44.7067 147° Southeast  Level Estimated
Sun 09:20:00 PM -20.8060 -44.6407 147° Southeast  Level Estimated
Sun 09:21:00 PM -20.9022 -44.5747 147° Southeast  Level Estimated
Sun 09:22:00 PM -20.9983 -44.5086 147° Southeast  Level Estimated
Sun 09:23:00 PM -21.0944 -44.4424 147° Southeast  Level Estimated
Sun 09:24:00 PM -21.1905 -44.3761 147° Southeast  Level Estimated
Sun 09:25:00 PM -21.2866 -44.3098 147° Southeast  Level Estimated
Sun 09:26:00 PM -21.3826 -44.2433 147° Southeast  Level Estimated
Sun 09:27:00 PM -21.4786 -44.1768 147° Southeast  Level Estimated
Sun 09:28:00 PM -21.5746 -44.1101 147° Southeast  Level Estimated
Sun 09:29:00 PM -21.6706 -44.0434 147° Southeast  Level Estimated
Sun 09:30:00 PM -21.7665 -43.9766 147° Southeast  Level Estimated
Sun 09:31:00 PM -21.8624 -43.9098 147° Southeast  Level Estimated
Sun 09:32:00 PM -21.9583 -43.8428 147° Southeast  Level Estimated
Sun 09:33:00 PM -22.0542 -43.7757 147° Southeast  Level Estimated
Sun 09:34:00 PM -22.1500 -43.7085 147° Southeast  Level Estimated
Sun 09:35:00 PM -22.2458 -43.6413 147° Southeast  Level Estimated
Sun 09:36:00 PM -22.3416 -43.5739 147° Southeast  Level Estimated
Sun 09:37:00 PM -22.4373 -43.5065 147° Southeast  Level Estimated
Sun 09:38:00 PM -22.5330 -43.4390 147° Southeast  Level Estimated
Sun 09:39:00 PM -22.6287 -43.3713 147° Southeast  Level Estimated

Login

Don't have an account? Register now (free) for customized features, flight alerts, and more!